Time;durP1;ratioP1;P1;durP2;ratioP2;P2;SDS_P1;SDS_P2;PMS_P1;PMS_P2;Temp;Humidity;BMP_temperature;BMP_pressure;BME280_temperature;BME280_humidity;BME280_pressure;Samples;Min_cycle;Max_cycle;Signal;HPM_P1;HPM_P2
2022/05/27 00:00:37;;;;;;;4.32;2.00;;;;;;;;;;5091889;28;20416;-72
2022/05/27 00:03:03;;;;;;;3.78;1.77;;;;;;;;;;5092047;28;20083;-72
2022/05/27 00:05:30;;;;;;;4.00;1.52;;;;;;;;;;5091762;28;20105;-72
2022/05/27 00:07:56;;;;;;;2.97;1.77;;;;;;;;;;5092289;28;20117;-71
2022/05/27 00:10:23;;;;;;;4.18;1.48;;;;;;;;;;5091920;28;20048;-72
2022/05/27 00:12:49;;;;;;;1.70;1.25;;;;;;;;;;5091856;28;20503;-72
2022/05/27 00:15:15;;;;;;;4.43;1.75;;;;;;;;;;5091815;28;20082;-72
2022/05/27 00:17:42;;;;;;;2.53;1.15;;;;;;;;;;5091872;28;20083;-72
2022/05/27 00:20:08;;;;;;;3.08;1.45;;;;;;;;;;5091862;28;20090;-72
2022/05/27 00:22:35;;;;;;;2.35;1.15;;;;;;;;;;5091729;28;20086;-72
2022/05/27 00:25:02;;;;;;;1.83;1.23;;;;;;;;;;5091567;28;20558;-72
2022/05/27 00:27:29;;;;;;;2.00;1.23;;;;;;;;;;5091725;28;20051;-72
2022/05/27 00:29:55;;;;;;;2.10;1.50;;;;;;;;;;5094704;28;20445;-72
2022/05/27 00:32:29;;;;;;;3.15;1.75;;;;;;;;;;5095847;28;20052;-72
2022/05/27 00:34:56;;;;;;;5.47;1.75;;;;;;;;;;5095553;28;20048;-72
2022/05/27 00:37:23;;;;;;;3.22;1.75;;;;;;;;;;5095530;28;20508;-72
2022/05/27 00:39:50;;;;;;;2.75;1.63;;;;;;;;;;5093980;28;20131;-72
2022/05/27 00:42:16;;;;;;;2.65;1.30;;;;;;;;;;5094495;28;20052;-72
2022/05/27 00:44:43;;;;;;;4.10;1.77;;;;;;;;;;5095583;28;20072;-72
2022/05/27 00:47:14;;;;;;;2.97;1.55;;;;;;;;;;5095598;28;20084;-72
2022/05/27 00:49:43;;;;;;;3.60;1.63;;;;;;;;;;5095194;28;20201;-72
2022/05/27 00:52:11;;;;;;;3.15;1.40;;;;;;;;;;5093876;28;20071;-72
2022/05/27 00:54:37;;;;;;;1.60;1.20;;;;;;;;;;5095145;28;20553;-72
2022/05/27 00:57:05;;;;;;;3.38;1.65;;;;;;;;;;5093810;28;20123;-72
2022/05/27 00:59:38;;;;;;;1.98;1.27;;;;;;;;;;5095370;28;20052;-72
2022/05/27 01:02:04;;;;;;;2.25;1.27;;;;;;;;;;5095396;28;20150;-72
2022/05/27 01:04:32;;;;;;;2.80;1.17;;;;;;;;;;5088540;28;20079;-73
2022/05/27 01:06:58;;;;;;;3.45;1.77;;;;;;;;;;5095136;28;20082;-72
2022/05/27 01:09:25;;;;;;;3.25;1.60;;;;;;;;;;5095048;28;20052;-72
2022/05/27 01:12:17;;;;;;;2.50;1.70;;;;;;;;;;5095103;28;20079;-72
2022/05/27 01:14:52;;;;;;;1.77;1.25;;;;;;;;;;5093469;28;20570;-72
2022/05/27 01:17:19;;;;;;;1.77;1.40;;;;;;;;;;5095143;28;20105;-72
2022/05/27 01:22:43;;;;;;;1.85;1.40;;;;;;;;;;5086361;28;20455;-72
2022/05/27 01:25:29;;;;;;;1.73;1.40;;;;;;;;;;5094516;28;20094;-72
2022/05/27 01:28:14;;;;;;;2.20;1.77;;;;;;;;;;5094858;28;20087;-72
2022/05/27 01:30:49;;;;;;;2.28;1.38;;;;;;;;;;5094517;28;20530;-72
2022/05/27 01:33:34;;;;;;;4.50;1.85;;;;;;;;;;5094381;28;20127;-72
2022/05/27 01:36:06;;;;;;;2.75;1.75;;;;;;;;;;5094738;28;20072;-72
2022/05/27 01:38:37;;;;;;;1.95;1.63;;;;;;;;;;5094553;28;20079;-72
2022/05/27 01:41:09;;;;;;;2.15;1.55;;;;;;;;;;5094002;28;20087;-72
2022/05/27 01:43:41;;;;;;;2.90;1.90;;;;;;;;;;5094281;28;20519;-72
2022/05/27 01:46:15;;;;;;;3.75;2.10;;;;;;;;;;5094507;28;20080;-72
2022/05/27 01:48:51;;;;;;;2.85;2.15;;;;;;;;;;5094346;28;20056;-72
2022/05/27 01:51:33;;;;;;;2.60;2.20;;;;;;;;;;5093120;28;20147;-72
2022/05/27 01:54:03;;;;;;;3.80;2.25;;;;;;;;;;5094225;28;20492;-72
2022/05/27 01:56:39;;;;;;;2.38;2.17;;;;;;;;;;5094479;28;20106;-72
2022/05/27 01:59:08;;;;;;;2.90;1.90;;;;;;;;;;5094226;28;20070;-72
2022/05/27 02:01:37;;;;;;;3.70;1.95;;;;;;;;;;5094091;28;20135;-72
2022/05/27 02:04:09;;;;;;;2.28;1.70;;;;;;;;;;5093936;28;20093;-72
2022/05/27 02:06:39;;;;;;;2.83;2.00;;;;;;;;;;5094179;28;20128;-72
2022/05/27 02:09:15;;;;;;;2.63;2.00;;;;;;;;;;5094002;28;20125;-72
2022/05/27 02:11:43;;;;;;;2.47;1.92;;;;;;;;;;5094548;28;20481;-72
2022/05/27 02:14:17;;;;;;;3.72;2.30;;;;;;;;;;5093801;28;20116;-72
2022/05/27 02:17:02;;;;;;;4.65;2.33;;;;;;;;;;5093690;28;20066;-72
2022/05/27 02:19:36;;;;;;;4.68;2.88;;;;;;;;;;5093575;28;20131;-72
2022/05/27 02:22:03;;;;;;;2.95;2.25;;;;;;;;;;5093761;28;20082;-72
2022/05/27 02:24:47;;;;;;;3.33;2.17;;;;;;;;;;5093412;28;20084;-72
2022/05/27 02:27:25;;;;;;;2.95;2.17;;;;;;;;;;5093491;28;20176;-72
2022/05/27 02:29:53;;;;;;;4.03;2.83;;;;;;;;;;5093319;28;20079;-72
2022/05/27 02:32:31;;;;;;;4.53;2.90;;;;;;;;;;5093561;28;20109;-72
2022/05/27 02:35:09;;;;;;;;;;;;;;;;;;5093944;28;20083;-72
2022/05/27 02:37:38;;;;;;;4.15;3.03;;;;;;;;;;5093496;28;19959;-72
2022/05/27 02:40:07;;;;;;;4.60;3.03;;;;;;;;;;5093095;28;20087;-72
2022/05/27 02:42:41;;;;;;;4.65;3.10;;;;;;;;;;5093130;28;20131;-72
2022/05/27 02:45:08;;;;;;;4.28;3.00;;;;;;;;;;5093086;28;20474;-72
2022/05/27 02:47:34;;;;;;;5.78;3.15;;;;;;;;;;5091759;28;20082;-72
2022/05/27 02:50:03;;;;;;;5.93;3.70;;;;;;;;;;5092962;28;20551;-72
2022/05/27 02:52:46;;;;;;;4.93;4.00;;;;;;;;;;5092783;28;20135;-72
2022/05/27 02:55:16;;;;;;;4.15;3.75;;;;;;;;;;5093086;28;20040;-72
2022/05/27 02:57:43;;;;;;;7.50;4.65;;;;;;;;;;5091656;28;20083;-72
2022/05/27 03:00:10;;;;;;;;;;;;;;;;;;5093457;28;20090;-72
2022/05/27 03:02:36;;;;;;;7.30;4.00;;;;;;;;;;5092728;28;20436;-72
2022/05/27 03:05:03;;;;;;;5.53;3.53;;;;;;;;;;5093029;28;20170;-72
2022/05/27 03:07:29;;;;;;;7.35;4.28;;;;;;;;;;5092595;28;20598;-72
2022/05/27 03:09:56;;;;;;;4.82;3.78;;;;;;;;;;5092893;28;20130;-72
2022/05/27 03:12:33;;;;;;;5.53;4.00;;;;;;;;;;5092842;28;20101;-72
2022/05/27 03:15:02;;;;;;;7.50;4.45;;;;;;;;;;5092576;28;20098;-72
2022/05/27 03:17:28;;;;;;;8.73;5.03;;;;;;;;;;5092503;28;20083;-72
2022/05/27 03:20:06;;;;;;;7.90;4.88;;;;;;;;;;5092321;28;20487;-72
2022/05/27 03:22:38;;;;;;;6.35;5.20;;;;;;;;;;5092477;28;20483;-72
2022/05/27 03:25:08;;;;;;;8.80;5.80;;;;;;;;;;5092695;28;20086;-72
2022/05/27 03:27:36;;;;;;;7.75;6.20;;;;;;;;;;5092292;28;20088;-72
2022/05/27 03:30:26;;;;;;;9.90;7.22;;;;;;;;;;5092121;28;20079;-72
2022/05/27 03:32:52;;;;;;;10.70;7.47;;;;;;;;;;5091476;28;20056;-73
2022/05/27 03:35:19;;;;;;;11.60;7.80;;;;;;;;;;5092343;28;20079;-72
2022/05/27 03:38:04;;;;;;;11.43;8.18;;;;;;;;;;5092448;28;20127;-72
2022/05/27 03:40:35;;;;;;;11.48;8.25;;;;;;;;;;5091939;28;20060;-72
2022/05/27 03:43:02;;;;;;;13.32;9.13;;;;;;;;;;5092424;28;20101;-72
2022/05/27 03:45:28;;;;;;;13.27;9.25;;;;;;;;;;5092396;28;20101;-72
2022/05/27 03:47:55;;;;;;;12.95;9.00;;;;;;;;;;5091967;28;20048;-73
2022/05/27 03:50:25;;;;;;;15.48;9.38;;;;;;;;;;5092223;28;20075;-72
2022/05/27 03:52:53;;;;;;;16.60;9.77;;;;;;;;;;5091943;28;20584;-72
2022/05/27 03:55:21;;;;;;;12.00;9.30;;;;;;;;;;5091748;28;20071;-72
2022/05/27 03:57:48;;;;;;;14.05;9.80;;;;;;;;;;5092116;28;20105;-72
2022/05/27 04:00:15;;;;;;;13.75;10.65;;;;;;;;;;5091764;28;20044;-72
2022/05/27 04:02:43;;;;;;;14.93;9.35;;;;;;;;;;5091407;28;20530;-72
2022/05/27 04:05:10;;;;;;;12.02;9.05;;;;;;;;;;5091665;28;20044;-72
2022/05/27 04:07:37;;;;;;;14.63;10.27;;;;;;;;;;5091803;28;20087;-72
2022/05/27 04:10:04;;;;;;;11.57;9.43;;;;;;;;;;5092008;28;20078;-72
2022/05/27 04:12:31;;;;;;;15.48;9.68;;;;;;;;;;5091802;28;20056;-72
2022/05/27 04:14:57;;;;;;;14.38;10.05;;;;;;;;;;5091862;28;20076;-72
2022/05/27 04:17:30;;;;;;;13.70;10.30;;;;;;;;;;5091673;28;20508;-72
2022/05/27 04:20:00;;;;;;;15.52;9.85;;;;;;;;;;5091741;28;20044;-72
2022/05/27 04:22:27;;;;;;;13.38;9.55;;;;;;;;;;5091967;28;20412;-72
2022/05/27 04:24:53;;;;;;;13.13;8.82;;;;;;;;;;5091439;28;20127;-72
2022/05/27 04:27:21;;;;;;;12.63;9.85;;;;;;;;;;5091502;28;20553;-72
2022/05/27 04:29:48;;;;;;;12.38;8.70;;;;;;;;;;5091550;28;20052;-72
2022/05/27 04:32:15;;;;;;;14.07;8.90;;;;;;;;;;5091573;28;20113;-72
2022/05/27 04:34:42;;;;;;;12.52;8.95;;;;;;;;;;5091831;28;20076;-72
2022/05/27 04:37:09;;;;;;;11.25;8.82;;;;;;;;;;5091742;28;20524;-72
2022/05/27 04:39:36;;;;;;;13.30;8.65;;;;;;;;;;5091541;28;20082;-72
2022/05/27 04:42:03;;;;;;;12.80;8.32;;;;;;;;;;5091523;28;20048;-72
2022/05/27 04:44:30;;;;;;;13.10;8.80;;;;;;;;;;5091710;28;20087;-72
2022/05/27 04:46:56;;;;;;;10.75;8.23;;;;;;;;;;5091585;28;20083;-72
2022/05/27 04:52:07;;;;;;;10.55;8.20;;;;;;;;;;5091211;28;20549;-72
2022/05/27 04:54:34;;;;;;;12.02;8.52;;;;;;;;;;5091743;28;20044;-72
2022/05/27 04:57:00;;;;;;;11.88;7.88;;;;;;;;;;5091462;28;20040;-72
2022/05/27 04:59:27;;;;;;;12.05;8.48;;;;;;;;;;5091529;28;20078;-72
2022/05/27 05:01:54;;;;;;;12.75;8.30;;;;;;;;;;5091370;28;20121;-72
2022/05/27 05:04:20;;;;;;;11.10;7.50;;;;;;;;;;5091249;28;20093;-72
2022/05/27 05:06:47;;;;;;;10.20;7.95;;;;;;;;;;5089985;28;20553;-72
2022/05/27 05:09:13;;;;;;;11.60;7.45;;;;;;;;;;5091425;28;20151;-72
2022/05/27 05:11:39;;;;;;;10.10;7.93;;;;;;;;;;5091121;28;20091;-72
2022/05/27 05:14:06;;;;;;;10.10;7.63;;;;;;;;;;5090980;28;20088;-72
2022/05/27 05:16:32;;;;;;;11.10;6.53;;;;;;;;;;5093829;28;20120;-72
2022/05/27 05:18:59;;;;;;;8.82;5.60;;;;;;;;;;5093887;28;20080;-72
2022/05/27 05:21:25;;;;;;;7.55;5.35;;;;;;;;;;5094995;28;20128;-72
2022/05/27 05:23:52;;;;;;;8.77;5.13;;;;;;;;;;5094768;28;20060;-72
2022/05/27 05:26:18;;;;;;;6.60;5.07;;;;;;;;;;5094522;28;20098;-72
2022/05/27 05:28:44;;;;;;;7.75;5.00;;;;;;;;;;5094944;28;20083;-72
2022/05/27 05:31:16;;;;;;;7.25;4.18;;;;;;;;;;5094454;28;20048;-72
2022/05/27 05:33:43;;;;;;;6.20;3.70;;;;;;;;;;5094689;28;20066;-72
2022/05/27 05:36:10;;;;;;;5.20;3.57;;;;;;;;;;5094790;28;20044;-72
2022/05/27 05:38:37;;;;;;;7.03;4.22;;;;;;;;;;5094687;28;20075;-72
2022/05/27 05:41:04;;;;;;;7.53;3.40;;;;;;;;;;5094216;28;20052;-72
2022/05/27 05:43:31;;;;;;;6.68;3.13;;;;;;;;;;5094318;28;20465;-72
2022/05/27 05:45:57;;;;;;;9.10;3.63;;;;;;;;;;5094581;28;20048;-72
2022/05/27 05:48:24;;;;;;;6.70;3.42;;;;;;;;;;5092923;28;20090;-72
2022/05/27 05:50:50;;;;;;;8.38;3.50;;;;;;;;;;5094331;28;20110;-72
2022/05/27 05:53:18;;;;;;;6.78;3.35;;;;;;;;;;5094383;28;20139;-72
2022/05/27 05:55:45;;;;;;;7.65;2.97;;;;;;;;;;5092609;28;20440;-73
2022/05/27 05:58:12;;;;;;;6.50;3.15;;;;;;;;;;5094238;28;20093;-72
2022/05/27 06:00:38;;;;;;;8.38;2.80;;;;;;;;;;5094205;28;20089;-72
2022/05/27 06:03:05;;;;;;;6.72;2.85;;;;;;;;;;5094165;28;20529;-72
2022/05/27 06:05:31;;;;;;;4.43;2.13;;;;;;;;;;5092606;28;20079;-72
2022/05/27 06:07:58;;;;;;;5.82;2.97;;;;;;;;;;5092284;28;20044;-72
2022/05/27 06:10:24;;;;;;;4.82;2.50;;;;;;;;;;5092779;28;20055;-72
2022/05/27 06:12:51;;;;;;;5.32;2.05;;;;;;;;;;5093040;28;20078;-72
2022/05/27 06:15:21;;;;;;;8.25;2.33;;;;;;;;;;5093197;28;20582;-73
2022/05/27 06:17:47;;;;;;;5.53;2.55;;;;;;;;;;5093744;28;20048;-73
2022/05/27 06:20:13;;;;;;;8.38;2.35;;;;;;;;;;5093932;28;20460;-73
2022/05/27 06:22:40;;;;;;;5.45;1.80;;;;;;;;;;5093065;28;20080;-72
2022/05/27 06:25:07;;;;;;;7.07;2.20;;;;;;;;;;5093304;28;20078;-71
2022/05/27 06:27:33;;;;;;;8.38;2.15;;;;;;;;;;5091202;28;20091;-72
2022/05/27 06:35:23;;;;;;;3.47;1.70;;;;;;;;;;5093766;28;20044;-72
2022/05/27 06:37:50;;;;;;;9.33;2.43;;;;;;;;;;5093132;28;20468;-72
2022/05/27 06:40:16;;;;;;;6.30;1.98;;;;;;;;;;5092956;28;20093;-73
2022/05/27 06:42:43;;;;;;;5.03;1.88;;;;;;;;;;5093245;28;20093;-74
2022/05/27 06:45:10;;;;;;;9.57;1.87;;;;;;;;;;5091886;28;20056;-73
2022/05/27 06:47:38;;;;;;;7.72;2.13;;;;;;;;;;5092830;28;20583;-73
2022/05/27 06:50:05;;;;;;;10.52;2.65;;;;;;;;;;5092789;28;20113;-72
2022/05/27 06:52:32;;;;;;;5.55;2.10;;;;;;;;;;5093235;28;20090;-72
2022/05/27 06:54:58;;;;;;;6.57;2.42;;;;;;;;;;5091026;28;20083;-72
2022/05/27 06:57:25;;;;;;;7.18;2.33;;;;;;;;;;5092883;28;20040;-72
2022/05/27 06:59:52;;;;;;;8.27;2.10;;;;;;;;;;5092776;28;20594;-72
2022/05/27 07:02:19;;;;;;;5.95;2.28;;;;;;;;;;5092422;28;20047;-71
2022/05/27 07:04:45;;;;;;;12.02;2.35;;;;;;;;;;5093048;28;20052;-70
2022/05/27 07:07:12;;;;;;;8.18;2.50;;;;;;;;;;5092094;28;20076;-70
2022/05/27 07:09:38;;;;;;;7.60;2.57;;;;;;;;;;5090980;28;20079;-71
2022/05/27 07:12:06;;;;;;;5.80;1.80;;;;;;;;;;5092147;28;20051;-70
2022/05/27 07:14:33;;;;;;;7.60;2.13;;;;;;;;;;5091659;28;20075;-71
2022/05/27 07:16:59;;;;;;;7.03;2.07;;;;;;;;;;5092092;28;20071;-70
2022/05/27 07:19:35;;;;;;;5.32;1.98;;;;;;;;;;5093025;28;20082;-69
2022/05/27 07:22:01;;;;;;;8.88;2.17;;;;;;;;;;5091817;28;20064;-70
2022/05/27 07:24:28;;;;;;;7.27;2.07;;;;;;;;;;5092083;28;20079;-69
2022/05/27 07:26:54;;;;;;;6.63;1.85;;;;;;;;;;5092511;28;20047;-69
2022/05/27 07:29:21;;;;;;;8.43;2.15;;;;;;;;;;5092161;28;20125;-70
2022/05/27 07:31:47;;;;;;;8.40;1.90;;;;;;;;;;5092511;28;20429;-69
2022/05/27 07:34:14;;;;;;;6.97;2.20;;;;;;;;;;5091830;28;20307;-69
2022/05/27 07:36:41;;;;;;;8.73;2.40;;;;;;;;;;5091717;28;20071;-69
2022/05/27 07:39:07;;;;;;;8.02;2.15;;;;;;;;;;5091300;28;20307;-69
2022/05/27 07:41:34;;;;;;;6.60;2.28;;;;;;;;;;5091088;28;20044;-72
2022/05/27 07:44:01;;;;;;;6.93;2.05;;;;;;;;;;5092096;28;20570;-71
2022/05/27 07:46:28;;;;;;;6.32;2.40;;;;;;;;;;5092003;28;20059;-71
2022/05/27 07:48:55;;;;;;;6.43;1.90;;;;;;;;;;5092309;28;20040;-71
2022/05/27 07:51:41;;;;;;;7.63;1.98;;;;;;;;;;5092191;28;20046;-64
2022/05/27 07:54:11;;;;;;;6.68;1.90;;;;;;;;;;5091938;28;20656;-64
2022/05/27 07:56:39;;;;;;;7.18;1.60;;;;;;;;;;5091617;28;20094;-64
2022/05/27 07:59:06;;;;;;;6.65;1.80;;;;;;;;;;5091378;28;20069;-64
2022/05/27 08:01:32;;;;;;;7.07;1.83;;;;;;;;;;5087225;28;20117;-64
2022/05/27 08:03:59;;;;;;;5.40;1.42;;;;;;;;;;5084949;28;20040;-64
2022/05/27 08:06:25;;;;;;;5.55;1.88;;;;;;;;;;5091127;28;20404;-64
2022/05/27 08:08:52;;;;;;;10.20;1.98;;;;;;;;;;5077199;28;20063;-64
2022/05/27 08:11:18;;;;;;;8.98;2.60;;;;;;;;;;5082394;28;20109;-64
2022/05/27 08:13:45;;;;;;;8.40;3.28;;;;;;;;;;5090622;28;20071;-64
2022/05/27 08:16:11;;;;;;;7.00;1.88;;;;;;;;;;5090691;28;20139;-64
2022/05/27 08:18:38;;;;;;;9.48;2.92;;;;;;;;;;5091015;28;20093;-64
2022/05/27 08:21:08;;;;;;;8.75;2.90;;;;;;;;;;5086146;28;20071;-64
2022/05/27 08:23:35;;;;;;;7.20;1.90;;;;;;;;;;5091370;28;20098;-65
2022/05/27 08:26:02;;;;;;;8.48;2.08;;;;;;;;;;5091225;28;20044;-65
2022/05/27 08:28:28;;;;;;;7.55;1.83;;;;;;;;;;5091287;28;20048;-65
2022/05/27 08:30:55;;;;;;;6.78;2.55;;;;;;;;;;5090929;28;20164;-65
2022/05/27 08:33:23;;;;;;;4.80;1.60;;;;;;;;;;5090508;28;20052;-66
2022/05/27 08:38:35;;;;;;;5.82;1.95;;;;;;;;;;5090498;28;20083;-65
2022/05/27 08:41:10;;;;;;;6.22;2.08;;;;;;;;;;5089951;28;20388;-66
2022/05/27 08:43:56;;;;;;;5.28;1.80;;;;;;;;;;5090982;28;20135;-65
2022/05/27 08:46:31;;;;;;;5.68;1.60;;;;;;;;;;5090137;28;20082;-66
2022/05/27 08:49:01;;;;;;;6.38;2.05;;;;;;;;;;5090681;28;20044;-66
2022/05/27 08:51:45;;;;;;;8.20;1.98;;;;;;;;;;5094716;28;20075;-66
2022/05/27 08:54:32;;;;;;;7.00;2.20;;;;;;;;;;5094891;28;20052;-65
2022/05/27 08:59:49;;;;;;;8.18;1.67;;;;;;;;;;5086073;28;20063;-65
2022/05/27 09:02:15;;;;;;;7.07;1.75;;;;;;;;;;5094159;28;20083;-65
2022/05/27 09:04:47;;;;;;;6.83;2.20;;;;;;;;;;5094368;28;20055;-65
2022/05/27 09:07:17;;;;;;;5.28;2.13;;;;;;;;;;5091763;28;20289;-65
2022/05/27 09:09:43;;;;;;;5.05;1.83;;;;;;;;;;5094024;28;20082;-65
2022/05/27 09:12:28;;;;;;;6.00;2.40;;;;;;;;;;5093971;28;20075;-65
2022/05/27 09:15:01;;;;;;;6.60;2.08;;;;;;;;;;5094161;28;20052;-66
2022/05/27 09:17:49;;;;;;;4.80;1.70;;;;;;;;;;5094217;28;20435;-66
2022/05/27 09:20:24;;;;;;;6.32;2.28;;;;;;;;;;5094160;28;20040;-66
2022/05/27 09:23:09;;;;;;;4.85;1.63;;;;;;;;;;5093427;28;20043;-66
2022/05/27 09:25:49;;;;;;;4.78;1.67;;;;;;;;;;5082683;28;20510;-66
2022/05/27 09:28:23;;;;;;;7.25;2.17;;;;;;;;;;5094399;28;20047;-66
2022/05/27 09:30:50;;;;;;;4.72;1.88;;;;;;;;;;5094346;28;20075;-66
2022/05/27 09:33:19;;;;;;;5.60;1.95;;;;;;;;;;5094252;28;20079;-65
2022/05/27 09:36:04;;;;;;;5.32;1.75;;;;;;;;;;5094388;28;20134;-65
2022/05/27 09:38:34;;;;;;;4.57;1.73;;;;;;;;;;5094161;28;20068;-65
2022/05/27 09:41:23;;;;;;;5.38;1.88;;;;;;;;;;5093886;28;20056;-64
2022/05/27 09:43:54;;;;;;;5.13;1.90;;;;;;;;;;5093261;28;20391;-63
2022/05/27 09:46:28;;;;;;;5.82;1.95;;;;;;;;;;5093397;28;20475;-63
2022/05/27 09:48:56;;;;;;;5.70;1.90;;;;;;;;;;5093309;28;20075;-63
2022/05/27 09:51:24;;;;;;;7.28;2.20;;;;;;;;;;5090701;28;20480;-65
2022/05/27 09:53:55;;;;;;;8.95;2.92;;;;;;;;;;5065443;28;20139;-65
2022/05/27 09:56:43;;;;;;;6.85;1.70;;;;;;;;;;5086805;28;20072;-66
2022/05/27 09:59:19;;;;;;;6.13;1.80;;;;;;;;;;5090576;28;20090;-66
2022/05/27 10:01:46;;;;;;;5.07;2.20;;;;;;;;;;5090591;28;20226;-65
2022/05/27 10:04:13;;;;;;;;;;;;;;;;;;5093708;28;20075;-65
2022/05/27 10:06:39;;;;;;;7.78;2.05;;;;;;;;;;5093297;28;19965;-65
2022/05/27 10:09:11;;;;;;;6.18;2.00;;;;;;;;;;5092800;28;20044;-66
2022/05/27 10:11:48;;;;;;;4.82;1.73;;;;;;;;;;5093120;28;20404;-66
2022/05/27 10:14:34;;;;;;;4.03;2.00;;;;;;;;;;5093202;28;20052;-66
2022/05/27 10:17:05;;;;;;;8.32;2.33;;;;;;;;;;5093140;28;20488;-66
2022/05/27 10:19:39;;;;;;;6.97;2.20;;;;;;;;;;5093502;28;20044;-66
2022/05/27 10:22:07;;;;;;;6.32;2.15;;;;;;;;;;5079202;28;20066;-72
2022/05/27 10:24:33;;;;;;;5.28;1.85;;;;;;;;;;5091320;28;20078;-72
2022/05/27 10:27:03;;;;;;;5.18;2.05;;;;;;;;;;5092767;28;20076;-72
2022/05/27 10:29:29;;;;;;;7.57;2.58;;;;;;;;;;5092346;28;20390;-70
2022/05/27 10:31:57;;;;;;;7.20;2.58;;;;;;;;;;5093352;28;20496;-72
2022/05/27 10:34:37;;;;;;;6.30;2.00;;;;;;;;;;5093559;28;20083;-72
2022/05/27 10:37:06;;;;;;;7.68;1.92;;;;;;;;;;5092564;28;20044;-72
2022/05/27 10:39:51;;;;;;;5.43;2.13;;;;;;;;;;5092858;28;20074;-72
2022/05/27 10:42:36;;;;;;;5.45;1.67;;;;;;;;;;5092887;28;20515;-72
2022/05/27 10:45:15;;;;;;;4.35;1.77;;;;;;;;;;5093121;28;20044;-72
2022/05/27 10:47:47;;;;;;;5.53;2.10;;;;;;;;;;5093028;28;20073;-72
2022/05/27 10:50:23;;;;;;;5.05;1.90;;;;;;;;;;5093358;28;20130;-72
2022/05/27 10:52:50;;;;;;;7.53;2.38;;;;;;;;;;5093330;28;20051;-72
2022/05/27 10:55:16;;;;;;;;;;;;;;;;;;5092361;28;20078;-72
2022/05/27 11:03:31;;;;;;;7.47;2.00;;;;;;;;;;5092770;28;20074;-70
2022/05/27 11:05:58;;;;;;;;;;;;;;;;;;5093197;28;20052;-70
2022/05/27 11:08:28;;;;;;;5.22;2.08;;;;;;;;;;5092893;28;19986;-70
2022/05/27 11:11:10;;;;;;;4.40;2.00;;;;;;;;;;5092986;28;20131;-70
2022/05/27 11:16:51;;;;;;;6.03;2.20;;;;;;;;;;5092812;28;20075;-72
2022/05/27 11:19:36;;;;;;;5.75;1.60;;;;;;;;;;5092749;28;20142;-72
2022/05/27 11:22:11;;;;;;;4.72;2.00;;;;;;;;;;5092668;28;20463;-72
2022/05/27 11:24:50;;;;;;;5.35;1.83;;;;;;;;;;5092402;28;20180;-72
2022/05/27 11:27:23;;;;;;;6.40;2.10;;;;;;;;;;5091452;28;20471;-72
2022/05/27 11:29:53;;;;;;;5.03;2.10;;;;;;;;;;5092459;28;20048;-71
2022/05/27 11:32:20;;;;;;;6.20;1.80;;;;;;;;;;5091322;28;20055;-70
2022/05/27 11:34:46;;;;;;;;;;;;;;;;;;5092780;28;20052;-70
2022/05/27 11:37:29;;;;;;;4.28;1.77;;;;;;;;;;5091657;28;19960;-70
2022/05/27 11:40:05;;;;;;;4.97;2.10;;;;;;;;;;5092257;28;20476;-71
2022/05/27 11:42:38;;;;;;;4.43;1.63;;;;;;;;;;5092340;28;20109;-71
2022/05/27 11:45:08;;;;;;;5.95;2.10;;;;;;;;;;5092138;28;20127;-71
2022/05/27 11:47:35;;;;;;;5.13;2.20;;;;;;;;;;5092328;28;20067;-71
2022/05/27 11:50:01;;;;;;;;;;;;;;;;;;5092472;28;20080;-70
2022/05/27 11:52:28;;;;;;;6.43;2.50;;;;;;;;;;5092159;28;19928;-70
2022/05/27 11:54:54;;;;;;;;;;;;;;;;;;5091729;28;20492;-70
2022/05/27 11:57:23;;;;;;;7.00;2.50;;;;;;;;;;5092078;28;19974;-70
2022/05/27 11:59:57;;;;;;;8.32;2.10;;;;;;;;;;5091877;28;20457;-70
2022/05/27 12:02:35;;;;;;;5.47;2.10;;;;;;;;;;5091001;28;20479;-70
2022/05/27 12:05:04;;;;;;;4.55;1.83;;;;;;;;;;5091273;28;20602;-70
2022/05/27 12:07:33;;;;;;;5.82;2.00;;;;;;;;;;5091488;28;20051;-70
2022/05/27 12:10:20;;;;;;;5.88;2.10;;;;;;;;;;5091231;28;20062;-70
2022/05/27 12:13:05;;;;;;;6.43;2.17;;;;;;;;;;5090152;28;20470;-70
2022/05/27 12:15:38;;;;;;;6.53;2.00;;;;;;;;;;5089916;28;20098;-70
2022/05/27 12:18:09;;;;;;;5.43;1.80;;;;;;;;;;5091507;28;20127;-70
2022/05/27 12:20:35;;;;;;;4.20;1.48;;;;;;;;;;5078623;28;20080;-70
2022/05/27 12:23:05;;;;;;;5.03;1.85;;;;;;;;;;5084492;28;20052;-70
2022/05/27 12:25:52;;;;;;;5.07;1.58;;;;;;;;;;5093563;28;20056;-71
2022/05/27 12:28:27;;;;;;;6.15;2.13;;;;;;;;;;5095286;28;20486;-70
2022/05/27 12:30:55;;;;;;;3.35;1.70;;;;;;;;;;5095213;28;20048;-70
2022/05/27 12:33:23;;;;;;;5.03;1.52;;;;;;;;;;5096018;28;20055;-70
2022/05/27 12:35:53;;;;;;;5.90;1.75;;;;;;;;;;5095870;28;20080;-70
2022/05/27 12:38:30;;;;;;;5.53;1.85;;;;;;;;;;5094611;28;20101;-69
2022/05/27 12:41:01;;;;;;;4.78;1.58;;;;;;;;;;5095497;28;20483;-69
2022/05/27 12:43:29;;;;;;;6.63;1.73;;;;;;;;;;5095853;28;20444;-69
2022/05/27 12:46:02;;;;;;;5.47;1.65;;;;;;;;;;5094746;28;20052;-69
2022/05/27 12:48:30;;;;;;;5.20;1.90;;;;;;;;;;5094808;28;20480;-69
2022/05/27 12:50:59;;;;;;;3.85;2.08;;;;;;;;;;5095394;28;20075;-69
2022/05/27 12:53:39;;;;;;;4.63;1.77;;;;;;;;;;5094844;28;20167;-70
2022/05/27 13:02:18;;;;;;;4.63;1.85;;;;;;;;;;5095468;28;20457;-70
2022/05/27 13:04:46;;;;;;;5.47;1.85;;;;;;;;;;5094804;28;20044;-70
2022/05/27 13:07:13;;;;;;;6.00;2.00;;;;;;;;;;5095001;28;20051;-68
2022/05/27 13:09:46;;;;;;;5.68;2.00;;;;;;;;;;5094432;28;20079;-68
2022/05/27 13:12:32;;;;;;;4.75;1.65;;;;;;;;;;5094602;28;20117;-68
2022/05/27 13:15:08;;;;;;;3.72;1.90;;;;;;;;;;5094364;28;20094;-68
2022/05/27 13:17:35;;;;;;;;;;;;;;;;;;5095125;28;20080;-68
2022/05/27 13:20:04;;;;;;;5.75;1.80;;;;;;;;;;5094277;28;19924;-68
2022/05/27 13:22:49;;;;;;;5.13;1.80;;;;;;;;;;5094561;28;20071;-68
2022/05/27 13:25:21;;;;;;;6.27;1.70;;;;;;;;;;5094236;28;20044;-68
2022/05/27 13:27:53;;;;;;;4.82;1.70;;;;;;;;;;5092980;28;20079;-68
2022/05/27 13:30:22;;;;;;;4.75;1.65;;;;;;;;;;5094408;28;20075;-68
2022/05/27 13:32:52;;;;;;;7.70;1.65;;;;;;;;;;5094750;28;20130;-68
2022/05/27 13:35:20;;;;;;;4.63;2.00;;;;;;;;;;5094573;28;20098;-68
2022/05/27 13:37:50;;;;;;;4.53;1.55;;;;;;;;;;5094271;28;20066;-67
2022/05/27 13:40:23;;;;;;;4.38;1.83;;;;;;;;;;5094503;28;20154;-67
2022/05/27 13:42:52;;;;;;;6.05;2.05;;;;;;;;;;5094572;28;20056;-68
2022/05/27 13:45:21;;;;;;;5.32;1.58;;;;;;;;;;5093297;28;20048;-67
2022/05/27 13:47:54;;;;;;;6.18;1.85;;;;;;;;;;5089691;28;20180;-67
2022/05/27 13:50:24;;;;;;;6.78;2.35;;;;;;;;;;5092893;28;20048;-67
2022/05/27 13:52:50;;;;;;;4.95;1.63;;;;;;;;;;5093726;28;20526;-67
2022/05/27 13:55:23;;;;;;;4.10;1.52;;;;;;;;;;5092507;28;20123;-67
2022/05/27 13:57:50;;;;;;;7.00;1.95;;;;;;;;;;5093943;28;20442;-67
2022/05/27 14:00:31;;;;;;;5.78;1.67;;;;;;;;;;5093724;28;20076;-67
2022/05/27 14:02:58;;;;;;;4.90;1.60;;;;;;;;;;5094201;28;20044;-68
2022/05/27 14:05:26;;;;;;;5.28;1.90;;;;;;;;;;5094290;28;20039;-68
2022/05/27 14:07:55;;;;;;;4.53;1.80;;;;;;;;;;5092797;28;20051;-67
2022/05/27 14:10:39;;;;;;;5.72;1.60;;;;;;;;;;5090869;28;20446;-67
2022/05/27 14:13:20;;;;;;;3.38;1.67;;;;;;;;;;5089875;28;20044;-69
2022/05/27 14:15:47;;;;;;;4.20;1.63;;;;;;;;;;5093976;28;20084;-69
2022/05/27 14:18:25;;;;;;;5.30;1.95;;;;;;;;;;5079394;28;20076;-70
2022/05/27 14:23:38;;;;;;;;;;;;;;;;;;5085914;28;20446;-68
2022/05/27 14:26:05;;;;;;;3.75;1.50;;;;;;;;;;5078345;28;19931;-67
2022/05/27 14:28:48;;;;;;;2.97;1.40;;;;;;;;;;5092527;28;20510;-69
2022/05/27 14:31:22;;;;;;;5.00;1.75;;;;;;;;;;5093241;28;20052;-68
2022/05/27 14:33:51;;;;;;;4.05;1.85;;;;;;;;;;5092855;28;20059;-68
2022/05/27 14:36:19;;;;;;;4.32;1.73;;;;;;;;;;5089738;28;20094;-70
2022/05/27 14:38:48;;;;;;;5.60;1.70;;;;;;;;;;5086958;28;20075;-70
2022/05/27 14:41:16;;;;;;;4.95;1.52;;;;;;;;;;5092613;28;20090;-69
2022/05/27 14:43:48;;;;;;;5.40;1.60;;;;;;;;;;5091349;28;20080;-69
2022/05/27 14:46:14;;;;;;;5.97;2.03;;;;;;;;;;5092064;28;20044;-69
2022/05/27 14:48:42;;;;;;;4.30;1.42;;;;;;;;;;5092413;28;20059;-70
2022/05/27 14:51:19;;;;;;;7.30;1.92;;;;;;;;;;5093036;28;20071;-70
2022/05/27 14:53:46;;;;;;;5.28;1.80;;;;;;;;;;5093008;28;20139;-69
2022/05/27 14:56:17;;;;;;;4.80;1.75;;;;;;;;;;5092547;28;20076;-70
2022/05/27 14:58:44;;;;;;;4.93;1.85;;;;;;;;;;5092919;28;20087;-69
2022/05/27 15:01:17;;;;;;;4.82;1.55;;;;;;;;;;5092809;28;20131;-69
2022/05/27 15:03:43;;;;;;;6.97;1.83;;;;;;;;;;5093175;28;20420;-70
2022/05/27 15:06:10;;;;;;;;;;;;;;;;;;5093390;28;20080;-69
2022/05/27 15:08:36;;;;;;;5.03;1.60;;;;;;;;;;5092717;28;19959;-69
2022/05/27 15:11:07;;;;;;;5.45;1.75;;;;;;;;;;5092791;28;20098;-69
2022/05/27 15:14:05;;;;;;;4.35;1.42;;;;;;;;;;5092857;28;20052;-69
2022/05/27 15:16:33;;;;;;;6.40;2.05;;;;;;;;;;5091828;28;20087;-69
2022/05/27 15:19:04;;;;;;;3.83;1.30;;;;;;;;;;5092545;28;20484;-69
2022/05/27 15:21:34;;;;;;;8.10;1.65;;;;;;;;;;5092446;28;20105;-69
2022/05/27 15:24:05;;;;;;;5.88;1.95;;;;;;;;;;5092462;28;20500;-69
2022/05/27 15:35:11;;;;;;;6.60;1.70;;;;;;;;;;5092217;28;20048;-69
2022/05/27 15:37:38;;;;;;;5.65;1.90;;;;;;;;;;5090855;28;20075;-69
2022/05/27 15:40:04;;;;;;;;;;;;;;;;;;5090864;28;20109;-69
2022/05/27 15:42:41;;;;;;;5.28;1.90;;;;;;;;;;5092146;28;19924;-69
2022/05/27 15:45:08;;;;;;;4.97;1.67;;;;;;;;;;5092170;28;20040;-70
2022/05/27 15:47:37;;;;;;;5.30;1.77;;;;;;;;;;5092222;28;20138;-69